Racine, Wisconsin
Current Conditions -  °F | °C
As of 12:53 PM on Tuesday 27 Jan 2015 (Local Time) from KRAC Reporting Station
Clear Clear  
Wind Chill: 20°   Ceiling: Unl
Heat Index: 29°   Visibility: 10mi
Dew Point: 16°   Wind: 9mph
Humidity: 58%   Direction: 40°NE
Pressure: 30.2"   Gusts: NA
Location:  42.73°N, 87.79°W
Report Text: KRAC 271853Z AUTO 04008KT 10SM CLR M02/M09 A3020 RMK AO2 SLP236 T10171089
Loading
Personal Weather Stations






























Interactive Weather Map New forecast layout! Learn more

10-Day Weather Forecast

Advertisements
Track Severe Weather on mobile